Data for 06/09/2015

Time Sea-Level Adjusted Pressure Absolute Pressure Temperature Relative Humidity Dew Point   
(mb) (inHg) (mb) (inHg) (C) (F) (%) (C) (F)
00:05 1019 30.09 848 25.04 17.7 63.8 53 8 46.3
00:10 1019 30.09 848 25.04 17.5 63.4 52 7.6 45.6
00:15 1019 30.09 848 25.04 17.8 64 51 7.7 45.9
00:20 1019 30.09 848 25.04 18.1 64.7 49 7.5 45.4
00:25 1019 30.09 848 25.04 18 64.3 51 7.7 45.8
00:30 1019 30.09 848 25.04 17.8 64.1 47 6.5 43.7
00:35 1019 30.09 848 25.04 18.3 64.9 47 7 44.5
00:40 1019 30.09 848 25.04 18 64.5 47 6.8 44.3
00:45 1019 30.09 848 25.04 18.2 64.7 48 7 44.6
00:50 1019 30.09 848 25.04 18.3 65 47 6.8 44.3
00:55 1019 30.09 848 25.04 18.4 65.1 46 6.8 44.2
01:00 1019 30.09 848 25.04 18.1 64.6 56 9.4 48.9
01:05 1019 30.09 848 25.04 17.5 63.5 53 8 46.4
01:10 1019 30.09 848 25.04 16.8 62.3 54 7.7 45.8
01:15 1019 30.09 848 25.04 16.6 61.8 54 7.4 45.3
01:20 1019 30.09 848 25.04 16.9 62.4 53 7.3 45.1
01:25 1019 30.09 848 25.04 17 62.6 53 7.4 45.3
01:30 1019 30.09 848 25.04 17.2 62.9 56 8.5 47.4
01:35 1019 30.09 848 25.04 17.4 63.2 52 7.5 45.6
01:40 1019 30.09 848 25.04 17.1 62.8 53 7.6 45.7
01:45 1019 30.09 848 25.04 16.8 62.3 54 7.7 45.8
01:50 1019 30.09 848 25.04 16.5 61.6 57 7.9 46.3
01:55 1019 30.09 848 25.04 16.3 61.3 56 7.6 45.6
02:00 1019 30.09 848 25.04 16.4 61.5 56 7.6 45.7
02:05 1019 30.09 848 25.04 16.6 61.9 53 7.2 44.9
02:10 1019 30.09 848 25.04 16.7 62.1 54 7.6 45.6
02:15 1019 30.09 848 25.04 16.8 62.2 54 7.4 45.3
02:20 1019 30.09 848 25.04 17.4 63.3 51 7.3 45.2
02:25 1019 30.09 848 25.04 17.5 63.5 52 7.7 45.8
02:30 1019 30.09 848 25.04 17.3 63.2 51 7.3 45.1
02:35 1019 30.09 848 25.04 17.7 63.9 51 7.5 45.5
02:40 1019 30.09 848 25.04 17.6 63.8 51 7.5 45.6
02:45 1019 30.09 848 25.04 17.1 62.8 54 7.7 45.8
02:50 1019 30.09 848 25.04 17 62.5 53 7.5 45.5
02:55 1019 30.09 848 25.04 16.9 62.4 55 7.8 46
03:00 1019 30.09 848 25.04 16.8 62.2 55 7.8 46
03:05 1019 30.09 848 25.04 16.9 62.4 53 7.4 45.4
03:10 1019 30.09 848 25.04 17.2 63 53 7.6 45.8
03:15 1019 30.09 848 25.04 16.9 62.4 54 7.6 45.7
03:20 1019 30.09 848 25.04 17 62.6 53 7.5 45.5
03:25 1019 30.09 848 25.04 17.4 63.2 51 7.2 44.9
03:30 1019 30.09 848 25.04 17.4 63.3 53 7.7 45.9
03:35 1019 30.09 848 25.04 17.3 63.1 52 7.4 45.3
03:40 1019 30.09 848 25.04 17 62.5 53 7.4 45.4
03:45 1019 30.09 848 25.04 16.7 62.1 53 7.2 44.9
03:50 1019 30.09 848 25.04 16.4 61.5 55 7.3 45.2
03:55 1019 30.09 848 25.04 16.3 61.3 56 7.6 45.6
04:00 1019 30.09 848 25.04 16 60.8 56 7.2 45
04:05 1019 30.09 848 25.04 16.2 61.1 57 7.8 46.1
04:10 1019 30.09 848 25.04 16 60.8 59 8 46.4
04:15 1019 30.09 848 25.04 15.9 60.5 57 7.4 45.4
04:20 1019 30.09 848 25.04 16 60.9 56 7.3 45.2
04:25 1019 30.09 848 25.04 16.1 61 56 7.5 45.5
04:30 1019 30.09 848 25.04 16 60.8 56 7.4 45.3
04:35 1019 30.09 848 25.04 15.8 60.4 60 8.1 46.6
04:40 1019 30.09 848 25.04 15.4 59.6 59 7.4 45.3
04:45 1019 30.09 848 25.04 15.6 60.1 58 7.5 45.5
04:50 1019 30.09 848 25.04 15.4 59.7 60 7.7 45.9
04:55 1019 30.09 848 25.04 15.3 59.5 60 7.6 45.7
05:00 1019 30.09 848 25.04 15.2 59.3 61 7.8 46
05:05 1019 30.09 848 25.04 15 58.9 61 7.5 45.6
05:10 1019 30.09 849 25.07 15.1 59.2 60 7.5 45.5
05:15 1019 30.09 849 25.07 15.5 59.8 58 7.3 45.1
05:20 1019 30.09 849 25.07 16 60.8 56 7.2 45
05:25 1020 30.12 849 25.07 16.4 61.6 55 7.5 45.5
05:30 1020 30.12 849 25.07 16.8 62.2 59 8.7 47.7
05:35 1020 30.12 849 25.07 17 62.6 53 7.5 45.5
05:40 1020 30.12 849 25.07 16.9 62.4 53 7.4 45.4
05:45 1020 30.12 849 25.07 17 62.6 53 7.4 45.3
05:50 1020 30.12 849 25.07 17.4 63.2 51 7.3 45.2
05:55 1020 30.12 849 25.07 17.6 63.6 56 8.8 47.8
06:00 1020 30.12 849 25.07 17.4 63.3 53 7.7 45.9
06:05 1020 30.12 849 25.07 17.2 63 53 7.7 45.9
06:10 1020 30.12 849 25.07 17.3 63.1 52 7.5 45.4
06:15 1020 30.12 849 25.07 17.7 63.9 51 7.4 45.4
06:20 1020 30.12 849 25.07 18.2 64.8 50 7.8 46.1
06:25 1020 30.12 849 25.07 18.6 65.6 53 8.9 47.9
06:30 1020 30.12 849 25.07 18.8 65.8 51 8.6 47.5
06:35 1020 30.12 849 25.07 19.1 66.4 51 9 48.1
06:40 1020 30.12 849 25.07 19.2 66.5 51 8.9 48.1
06:45 1020 30.12 849 25.07 19.4 66.9 48 8.3 46.9
06:50 1020 30.12 849 25.07 19.5 67.1 49 8.6 47.5
06:55 1020 30.12 849 25.07 19.9 67.8 49 9 48.2
07:00 1020 30.12 849 25.07 19.6 67.2 50 9 48.2
07:05 1020 30.12 849 25.07 19.9 67.9 49 9.1 48.3
07:10 1020 30.12 849 25.07 20.5 68.9 49 9.6 49.3
07:15 1020 30.12 849 25.07 21.1 70 47 9.6 49.3
07:20 1020 30.12 849 25.07 21.8 71.2 45 9.4 48.9
07:25 1019 30.09 849 25.07 21.6 70.9 46 9.6 49.3
07:30 1019 30.09 849 25.07 21.6 70.9 45 9.2 48.6
07:35 1019 30.09 849 25.07 22.1 71.7 41 8.4 47.2
07:40 1019 30.09 849 25.07 22.8 73 38 8.1 46.6
07:45 1019 30.09 849 25.07 22.8 73.1 41 9.2 48.5
07:50 1019 30.09 849 25.07 23.1 73.6 38 8.3 47
07:55 1019 30.09 849 25.07 23.7 74.6 36 7.9 46.3
08:00 1019 30.09 849 25.07 23.7 74.6 38 8.6 47.5
08:05 1019 30.09 849 25.07 23.5 74.3 35 7.3 45.2
08:10 1019 30.09 849 25.07 23.3 74 36 7.5 45.5
08:15 1019 30.09 848 25.04 23.4 74 34 7 44.6
08:20 1019 30.09 848 25.04 23.8 74.9 34 7.3 45.2
08:25 1019 30.09 848 25.04 24.3 75.8 33 7.3 45.1
08:30 1019 30.09 848 25.04 24.5 76.1 33 7.4 45.2
08:35 1019 30.09 848 25.04 25.3 77.6 32 7.7 45.9
08:40 1019 30.09 848 25.04 24.8 76.7 33 7.8 46
08:45 1019 30.09 848 25.04 24.9 76.8 33 7.8 46.1
08:50 1019 30.09 848 25.04 24.9 76.8 35 8.8 47.8
08:55 1019 30.09 848 25.04 24.9 76.9 34 8.2 46.8
09:00 1019 30.09 848 25.04 25.1 77.3 32 7.7 45.9
09:05 1019 30.09 848 25.04 25.9 78.6 31 7.7 45.9
09:10 1019 30.09 848 25.04 26.1 78.9 31 8 46.3
09:15 1019 30.09 848 25.04 26 78.7 31 7.8 46.1
09:20 1019 30.09 848 25.04 26.4 79.4 30 7.7 45.9
09:25 1019 30.09 848 25.04 26.9 80.5 29 7.8 46
09:30 1019 30.09 848 25.04 27.5 81.4 29 8 46.3
09:35 1019 30.09 848 25.04 27.4 81.3 29 8.1 46.6
09:40 1019 30.09 848 25.04 27.3 81.1 29 7.9 46.1
09:45 1019 30.09 848 25.04 26.9 80.5 30 8.4 47.1
09:50 1019 30.09 848 25.04 27.3 81.2 29 7.9 46.3
09:55 1019 30.09 848 25.04 28.2 82.7 29 8.6 47.5
10:00 1018 30.06 848 25.04 28 82.4 29 8.4 47.2
10:05 1018 30.06 848 25.04 28.3 82.9 29 8.6 47.5
10:10 1018 30.06 848 25.04 27.3 81.1 28 7.3 45.2
10:15 1018 30.06 848 25.04 27.2 81 26 6.5 43.7
10:20 1018 30.06 847 25.01 28 82.5 27 7.7 45.9
10:25 1018 30.06 847 25.01 27.8 82.1 27 7.6 45.6
10:30 1018 30.06 847 25.01 28 82.3 26 6.9 44.5
10:35 1018 30.06 847 25.01 28.6 83.5 25 7.2 45
10:40 1018 30.06 847 25.01 28 82.4 24 5.9 42.7
10:45 1018 30.06 847 25.01 28.1 82.6 26 7 44.5
10:50 1018 30.06 847 25.01 29.2 84.6 27 8.6 47.6
10:55 1018 30.06 847 25.01 28.7 83.6 26 7.6 45.7
11:00 1018 30.06 847 25.01 28.9 84 27 8.4 47.2
11:05 1018 30.06 847 25.01 29.2 84.5 24 6.7 44
11:10 1018 30.06 847 25.01 28.4 83.2 23 5.9 42.7
11:15 1018 30.06 847 25.01 28.7 83.7 24 6.6 43.9
11:20 1018 30.06 847 25.01 29.2 84.5 22 5.5 41.8
11:25 1018 30.06 847 25.01 29 84.3 22 5.2 41.4
11:30 1018 30.06 847 25.01 29 84.2 22 5.6 42
11:35 1018 30.06 847 25.01 28.6 83.4 23 5.8 42.5
11:40 1018 30.06 847 25.01 28.7 83.7 21 4.7 40.4
11:45 1018 30.06 847 25.01 29 84.3 21 5 41
11:50 1018 30.06 847 25.01 29.9 85.8 21 5.4 41.8
11:55 1018 30.06 847 25.01 29.5 85.1 20 4.3 39.7
12:00 1018 30.06 847 25.01 30 86.1 22 6.2 43.2
12:05 1017 30.03 847 25.01 29.5 85.2 21 5.3 41.5
12:10 1017 30.03 847 25.01 30.2 86.4 19 4.1 39.3
12:15 1017 30.03 847 25.01 30.6 87.1 19 4.6 40.3
12:20 1017 30.03 846 24.98 30.6 87 15 1.7 35.1
12:25 1017 30.03 846 24.98 30.7 87.3 18 4 39.2
12:30 1017 30.03 846 24.98 30.7 87.3 16 2.5 36.4
12:35 1017 30.03 846 24.98 29.9 85.9 18 3 37.5
12:40 1017 30.03 846 24.98 30.9 87.6 15 1.5 34.7
12:45 1017 30.03 846 24.98 31.7 89.1 15 2.5 36.6
12:50 1017 30.03 846 24.98 31.3 88.4 15 2.4 36.3
12:55 1017 30.03 846 24.98 30.8 87.4 13 -0.5 31.2
13:00 1017 30.03 846 24.98 31 87.8 14 0.6 33.1
13:05 1017 30.03 846 24.98 31.5 88.7 13 0.3 32.5
13:10 1017 30.03 846 24.98 31.3 88.3 15 1.7 35
13:15 1017 30.03 846 24.98 30.9 87.7 15 1.6 34.8
13:20 1017 30.03 846 24.98 30.8 87.5 15 1.8 35.3
13:25 1017 30.03 846 24.98 30.5 86.9 15 1.7 35.1
13:30 1017 30.03 846 24.98 31.2 88.2 15 1.7 35.1
13:35 1016 30 846 24.98 30.9 87.7 14 1.1 34.1
13:40 1016 30 846 24.98 30.9 87.7 15 1.4 34.6
13:45 1016 30 845 24.95 31.7 89.1 13 0.7 33.2
13:50 1016 30 845 24.95 32.1 89.7 12 -0 32
13:55 1016 30 845 24.95 31.9 89.5 12 -0.1 31.9
14:00 1016 30 845 24.95 31.6 88.8 13 0.2 32.3
14:05 1016 30 845 24.95 31.6 88.9 13 0.2 32.3
14:10 1016 30 845 24.95 31.5 88.6 13 0.2 32.4
14:15 1016 30 845 24.95 31.3 88.3 14 0.8 33.5
14:20 1016 30 845 24.95 31.7 89 13 0.7 33.2
14:25 1016 30 845 24.95 32.1 89.7 13 1 33.8
14:30 1016 30 845 24.95 32.2 89.9 14 1.3 34.3
14:35 1016 30 845 24.95 31.9 89.5 13 0.7 33.3
14:40 1016 30 845 24.95 32.6 90.7 13 1.3 34.4
14:45 1016 30 845 24.95 32.4 90.3 13 0.6 33.1
14:50 1016 30 845 24.95 32.1 89.7 14 1.4 34.5
14:55 1016 30 845 24.95 31.7 89.1 14 0.9 33.6
15:00 1016 30 845 24.95 32.3 90.1 13 1.1 34
15:05 1015 29.97 845 24.95 32.2 90 14 1.3 34.4
15:10 1015 29.97 845 24.95 31.9 89.4 14 1.2 34.2
15:15 1015 29.97 845 24.95 31.8 89.2 14 0.9 33.7
15:20 1015 29.97 845 24.95 31.9 89.3 14 1.5 34.8
15:25 1015 29.97 844 24.92 31.7 89 14 1.8 35.2
15:30 1015 29.97 844 24.92 31.2 88.1 14 0.8 33.4
15:35 1015 29.97 844 24.92 30.6 87.1 14 0.7 33.3
15:40 1015 29.97 844 24.92 30.8 87.5 14 0.7 33.3
15:45 1015 29.97 844 24.92 31.4 88.4 14 1 33.8
15:50 1015 29.97 844 24.92 31.2 88.2 14 0.9 33.6
15:55 1015 29.97 844 24.92 31.3 88.3 14 1.3 34.3
16:00 1015 29.97 844 24.92 31.5 88.6 15 2 35.6
16:05 1015 29.97 844 24.92 30.4 86.7 20 5.1 41.1
16:10 1015 29.97 844 24.92 29.4 84.8 21 4.9 40.9
16:15 1015 29.97 844 24.92 28.9 84 22 5.3 41.5
16:20 1015 29.97 844 24.92 28.5 83.3 22 4.8 40.7
16:25 1015 29.97 844 24.92 28.4 83 22 5.1 41.2
16:30 1015 29.97 844 24.92 28.2 82.8 21 4.2 39.5
16:35 1015 29.97 844 24.92 28 82.4 24 5.7 42.3
16:40 1014 29.94 844 24.92 27.9 82.2 24 5.5 41.9
16:45 1014 29.94 844 24.92 27.6 81.6 24 5.3 41.5
16:50 1014 29.94 844 24.92 27.6 81.6 25 6.2 43.2
16:55 1014 29.94 844 24.92 27.6 81.7 25 6.2 43.1
17:00 1014 29.94 844 24.92 27.5 81.5 26 6.3 43.4
17:05 1014 29.94 844 24.92 27.5 81.4 26 6.5 43.7
17:10 1014 29.94 844 24.92 27.2 80.9 26 6.4 43.5
17:15 1014 29.94 843 24.89 26.8 80.3 28 7 44.6
17:20 1014 29.94 843 24.89 26.6 79.9 28 6.9 44.4
17:25 1014 29.94 843 24.89 26.7 80 28 6.7 44.1
17:30 1014 29.94 843 24.89 26.8 80.2 28 7.2 45
17:35 1014 29.94 844 24.92 26.8 80.3 28 6.8 44.3
17:40 1014 29.94 844 24.92 26.8 80.2 27 6.4 43.6
17:45 1014 29.94 844 24.92 26.5 79.8 28 6.7 44
17:50 1014 29.94 844 24.92 26.5 79.6 27 6 42.8
17:55 1015 29.97 844 24.92 26.5 79.7 27 6.4 43.5
18:00 1015 29.97 844 24.92 26.4 79.4 27 6.3 43.3
18:05 1015 29.97 844 24.92 26.3 79.4 28 6.8 44.2
18:10 1015 29.97 844 24.92 26 78.9 31 7.8 46
18:15 1015 29.97 844 24.92 25.6 78 34 8.6 47.5
18:20 1015 29.97 844 24.92 25.4 77.7 29 6.3 43.4
18:25 1016 30 845 24.95 24.7 76.4 30 6.3 43.3
18:30 1016 30 845 24.95 23.7 74.7 31 5.9 42.6
18:35 1016 30 845 24.95 23.3 73.9 31 5.5 41.9
18:40 1016 30 845 24.95 22.9 73.1 33 6 42.7
18:45 1016 30 845 24.95 22.3 72.2 35 6.2 43.1
18:50 1016 30 845 24.95 22.2 71.9 38 7.3 45.2
18:55 1016 30 846 24.98 21.9 71.5 40 7.7 45.9
19:00 1017 30.03 846 24.98 21.7 71.1 42 8.3 46.9
19:05 1017 30.03 846 24.98 21.5 70.7 42 8.4 47
19:10 1017 30.03 846 24.98 21.1 69.9 42 7.9 46.2
19:15 1017 30.03 846 24.98 20.9 69.6 43 7.9 46.3
19:20 1017 30.03 846 24.98 20.6 69.1 43 7.7 45.8
19:25 1017 30.03 846 24.98 20.6 69.1 42 7.4 45.3
19:30 1017 30.03 846 24.98 20.6 69.2 42 7.4 45.3
19:35 1017 30.03 846 24.98 20.4 68.7 48 9.2 48.6
19:40 1017 30.03 846 24.98 19.6 67.4 46 8 46.3
19:45 1017 30.03 846 24.98 19.9 67.7 47 8.2 46.8
19:50 1017 30.03 846 24.98 19.7 67.4 51 9.4 48.9
19:55 1017 30.03 846 24.98 19.3 66.8 51 9.2 48.5
20:00 1017 30.03 846 24.98 19.4 66.9 52 9.4 49
20:05 1017 30.03 846 24.98 19.2 66.5 53 9.4 49
20:10 1017 30.03 847 25.01 19 66.3 55 10 50
20:15 1017 30.03 847 25.01 18.7 65.7 56 9.8 49.6
20:20 1017 30.03 847 25.01 18.6 65.4 56 9.6 49.3
20:25 1017 30.03 847 25.01 18.6 65.4 55 9.3 48.8
20:30 1017 30.03 847 25.01 18.7 65.7 53 9.1 48.4
20:35 1017 30.03 847 25.01 18.9 66 52 9 48.2
20:40 1017 30.03 847 25.01 19.1 66.3 51 8.7 47.6
20:45 1017 30.03 847 25.01 19.3 66.7 48 8.2 46.8
20:50 1017 30.03 847 25.01 19.7 67.5 48 8.4 47.1
20:55 1017 30.03 847 25.01 19.9 67.9 46 8.1 46.7
21:00 1018 30.06 847 25.01 19.7 67.4 50 9 48.3
21:05 1017 30.03 847 25.01 19 66.1 52 9 48.2
21:10 1017 30.03 847 25.01 19 66.2 51 8.8 47.9
21:15 1017 30.03 847 25.01 19 66.2 50 8.6 47.5
21:20 1017 30.03 847 25.01 18.8 65.9 53 9.1 48.3
21:25 1017 30.03 847 25.01 18.3 64.9 55 9.2 48.5
21:30 1017 30.03 847 25.01 18 64.4 56 9.2 48.6
21:35 1017 30.03 847 25.01 17.9 64.2 57 9.2 48.6
21:40 1017 30.03 847 25.01 18 64.4 56 9.3 48.8
21:45 1017 30.03 847 25.01 18.1 64.5 56 9.3 48.7
21:50 1017 30.03 847 25.01 18.1 64.5 56 9.2 48.6
21:55 1017 30.03 846 24.98 18.2 64.7 55 9 48.2
22:00 1017 30.03 846 24.98 18.2 64.8 55 9.1 48.4
22:05 1017 30.03 846 24.98 18.1 64.7 55 9.2 48.5
22:10 1017 30.03 846 24.98 18.1 64.5 55 9 48.3
22:15 1017 30.03 847 25.01 17.9 64.3 55 9 48.2
22:20 1017 30.03 847 25.01 18.1 64.5 55 9 48.2
22:25 1018 30.06 847 25.01 18.2 64.7 56 9.2 48.6
22:30 1017 30.03 847 25.01 18.1 64.5 56 9.2 48.6
22:35 1017 30.03 847 25.01 18.1 64.5 56 9.2 48.5
22:40 1017 30.03 847 25.01 18 64.4 56 9.2 48.5
22:45 1017 30.03 847 25.01 17.9 64.3 56 9.2 48.5
22:50 1018 30.06 847 25.01 17.9 64.2 57 9.4 48.8
22:55 1018 30.06 847 25.01 17.8 64 58 9.5 49.1
23:00 1018 30.06 847 25.01 17.6 63.6 59 9.6 49.2
23:05 1018 30.06 847 25.01 17.4 63.3 60 9.6 49.4
23:10 1018 30.06 847 25.01 17 62.6 63 10 50
23:15 1018 30.06 847 25.01 16.6 62 64 9.8 49.7
23:20 1018 30.06 847 25.01 16.8 62.2 61 9.4 49
23:25 1018 30.06 847 25.01 16.8 62.3 62 9.6 49.3
23:30 1017 30.03 847 25.01 16.7 62.1 64 9.9 49.8
23:35 1017 30.03 847 25.01 16.3 61.3 65 9.8 49.7
23:40 1017 30.03 847 25.01 16.2 61.1 65 9.6 49.3
23:45 1017 30.03 847 25.01 16.4 61.5 63 9.5 49.1
23:50 1017 30.03 846 24.98 16.6 61.8 62 9.4 48.9
23:55 1017 30.03 846 24.98 16.5 61.8 64 9.7 49.4
24:00 1017 30.03 846 24.98 16.3 61.3 64 9.4 49